Date,TemperatureHighF,TemperatureAvgF,TemperatureLowF,DewpointHighF,DewpointAvgF,DewpointLowF,HumidityHigh,HumidityAvg,HumidityLow,PressureMaxIn,PressureMinIn,WindSpeedMaxMPH,WindSpeedAvgMPH,GustSpeedMaxMPH,PrecipitationSumIn
2013-1-1,47.0,42.8,40.0,36.0,35.2,35.0,83,75,66,29.92,29.79,3,2,10,0.05
2013-1-9,49.0,48.5,48.0,45.0,43.4,42.0,87,82,80,30.11,30.11,0,0,2,0.09
2013-1-10,37.0,37.0,37.0,37.0,37.0,37.0,99,99,99,29.98,29.98,0,0,3,0.00
2013-1-15,34.0,34.0,34.0,31.0,31.0,31.0,89,89,89,29.84,29.84,1,0,7,0.00
2013-1-16,29.0,29.0,29.0,29.0,29.0,29.0,99,99,99,29.87,29.87,0,0,2,0.00
2013-1-17,33.0,33.0,33.0,32.0,32.0,32.0,98,98,98,29.96,29.94,0,0,2,0.00
2013-1-18,29.0,29.0,29.0,29.0,29.0,29.0,99,99,99,29.43,29.41,1,0,6,0.00
2013-1-19,33.0,33.0,33.0,33.0,32.4,32.0,99,98,98,29.41,29.39,1,1,6,0.00
2013-1-20,34.0,31.6,30.0,32.0,29.9,29.0,96,94,93,29.38,29.30,0,0,4,0.05
2013-1-21,36.0,36.0,36.0,32.0,32.0,32.0,84,84,84,29.34,29.34,1,1,4,0.00
2013-1-22,32.0,31.9,31.0,32.0,31.9,31.0,99,99,99,29.52,29.52,0,0,3,0.04
2013-1-23,35.0,34.3,33.0,33.0,32.8,32.0,96,94,92,29.75,29.71,1,0,5,0.14
2013-1-24,35.0,34.8,34.0,32.0,32.0,32.0,93,91,90,30.00,29.99,0,0,3,0.08
2013-1-25,37.0,35.4,33.0,35.0,30.5,28.0,91,82,72,30.02,29.61,6,4,14,0.01
2013-1-27,43.0,43.0,43.0,36.0,35.5,35.0,76,74,72,29.49,29.47,3,2,12,0.26
2013-1-28,47.0,44.3,42.0,41.0,39.4,38.0,87,83,79,29.79,29.72,5,3,17,0.01
2013-1-29,54.0,54.0,54.0,54.0,54.0,54.0,99,99,99,29.61,29.60,2,2,11,0.21
2013-1-30,53.0,49.3,46.0,46.0,39.3,36.0,80,69,57,29.97,29.68,7,3,20,0.22
2013-1-31,47.0,47.0,47.0,39.0,38.4,37.0,75,73,68,29.90,29.89,2,1,8,0.13
2013-2-1,42.0,40.3,38.0,42.0,37.8,36.0,99,91,83,29.51,29.44,1,0,4,0.20
2013-2-3,50.0,48.2,47.0,48.0,46.5,45.0,95,94,92,29.97,29.94,2,1,8,0.00
2013-2-4,51.0,50.7,50.0,39.0,38.7,38.0,64,63,63,29.95,29.95,4,4,13,0.00
2013-2-5,42.0,41.2,40.0,29.0,26.7,25.0,62,56,50,29.45,29.39,3,3,14,0.08
2013-2-7,40.0,40.0,40.0,31.0,31.0,31.0,70,70,70,30.10,30.10,1,1,4,0.01
2013-2-8,44.0,44.0,44.0,35.0,35.0,35.0,71,71,71,30.10,30.10,2,2,9,0.00
2013-2-9,36.0,36.0,36.0,35.0,35.0,35.0,98,98,98,30.10,30.10,0,0,3,0.00
2013-2-10,38.0,38.0,38.0,38.0,38.0,38.0,99,99,99,29.27,29.23,2,2,11,0.40
2013-2-12,36.0,36.0,36.0,30.0,30.0,30.0,79,79,78,29.98,29.98,0,0,3,0.00
2013-2-13,36.0,35.4,34.0,35.0,31.1,27.0,98,85,69,30.16,30.02,4,4,13,0.06
2013-2-14,53.0,52.9,52.0,44.0,44.0,44.0,73,72,72,29.82,29.82,3,2,11,0.19
2013-2-15,44.0,44.0,44.0,34.0,34.0,34.0,69,69,67,30.14,30.14,0,0,0,0.00
2013-2-17,48.0,47.1,47.0,29.0,28.1,28.0,47,47,47,29.69,29.68,3,2,10,0.00
2013-2-18,50.0,49.4,48.0,38.0,37.4,37.0,68,63,61,30.10,30.09,2,1,8,0.00
2013-2-19,41.0,41.0,41.0,36.0,36.0,36.0,83,83,83,30.10,30.10,1,1,2,0.00
2013-2-20,40.0,40.0,40.0,40.0,39.4,39.0,99,98,97,30.18,30.17,2,2,11,0.00
2013-2-21,36.0,34.6,33.0,23.0,20.2,18.0,61,56,53,30.23,30.15,3,2,14,0.04
2013-2-22,36.0,33.4,33.0,22.0,20.5,19.0,63,59,50,29.92,29.90,1,1,9,0.01
2013-2-23,35.0,35.0,35.0,26.0,26.0,26.0,70,70,70,29.94,29.94,1,1,3,0.00
2013-2-24,36.0,35.2,35.0,27.0,26.7,26.0,73,71,70,30.06,30.05,1,1,7,0.00
2013-2-25,38.0,38.0,38.0,35.0,35.0,35.0,90,90,90,30.16,30.15,1,1,4,0.00
2013-2-26,41.0,40.5,40.0,40.0,39.5,39.0,95,95,95,30.30,30.30,1,1,6,0.00
2013-2-27,39.0,38.3,38.0,34.0,33.9,33.0,84,83,81,30.27,30.27,0,0,5,0.00
2013-2-28,41.0,40.9,40.0,34.0,34.0,34.0,79,77,76,30.21,30.20,1,1,4,0.00
2013-3-2,37.0,37.0,37.0,29.0,29.0,29.0,73,73,73,30.15,30.15,0,0,2,0.00
2013-3-3,45.0,40.8,34.0,36.0,33.4,31.0,98,75,67,30.04,29.91,1,0,10,0.01
2013-3-5,52.0,51.5,49.0,43.0,42.8,42.0,78,73,72,29.47,29.47,0,0,2,0.00
2013-3-7,50.0,50.0,50.0,50.0,50.0,50.0,99,99,99,29.17,29.16,0,0,4,0.25
2013-3-8,50.0,49.3,49.0,50.0,49.3,49.0,99,99,99,29.32,29.29,0,0,2,0.70
2013-3-10,38.0,36.3,35.0,35.0,31.3,29.0,89,82,77,29.52,29.47,2,1,10,0.00
2013-3-11,34.0,31.4,29.0,20.0,17.5,16.0,61,56,50,29.54,29.51,3,3,14,0.01
2013-3-13,37.0,34.5,33.0,25.0,24.2,23.0,72,66,56,29.72,29.70,0,0,3,0.00
2013-3-16,49.0,49.0,49.0,41.0,41.0,41.0,75,75,75,29.13,29.13,5,5,14,0.00
2013-3-17,36.0,36.0,36.0,36.0,36.0,36.0,99,99,99,29.00,28.99,0,0,2,0.54
2013-3-21,42.0,42.0,42.0,36.0,35.2,35.0,78,77,77,29.78,29.78,1,1,7,0.01
2013-3-22,39.0,37.4,34.0,36.0,34.8,31.0,92,90,89,29.57,29.50,3,3,12,0.38
2013-3-23,35.0,34.2,34.0,35.0,34.2,34.0,99,99,99,29.61,29.60,1,1,8,0.27
2013-3-24,33.0,32.2,31.0,29.0,25.8,23.0,90,77,66,29.73,29.68,2,1,9,0.11
2013-3-25,35.0,33.5,33.0,24.0,23.4,23.0,68,66,65,29.75,29.73,2,1,8,0.02
2013-3-27,41.0,40.7,40.0,23.0,23.0,23.0,50,49,49,29.64,29.64,1,1,8,0.04
2013-3-28,42.0,38.2,36.0,27.0,22.3,20.0,54,53,52,29.74,29.67,1,0,7,0.00
2013-3-29,48.0,46.9,46.0,21.0,20.0,19.0,37,34,33,29.61,29.59,3,2,10,0.00
2013-3-30,41.0,41.0,41.0,23.0,23.0,23.0,49,49,49,29.64,29.64,1,1,6,0.01
2013-4-1,40.0,39.7,39.0,25.0,24.1,23.0,57,53,52,29.65,29.64,2,2,11,0.00
2013-4-2,47.0,47.0,47.0,25.0,25.0,25.0,41,41,41,29.74,29.74,2,2,10,0.00
2013-4-3,43.0,42.6,42.0,23.0,21.9,21.0,44,43,43,29.84,29.83,3,3,11,0.01
2013-4-4,39.0,37.2,36.0,27.0,25.5,25.0,64,62,60,29.75,29.72,2,2,10,0.00
2013-4-5,47.0,43.8,40.0,27.0,23.6,21.0,60,46,37,29.78,29.77,2,2,10,0.00
2013-4-6,46.0,46.0,46.0,31.0,30.3,30.0,55,54,53,30.03,30.03,2,1,7,0.00
2013-4-7,51.0,46.5,41.0,20.0,19.9,19.0,42,35,29,29.79,29.72,3,1,9,0.00
2013-4-8,52.0,49.6,47.0,28.0,25.4,23.0,39,38,37,29.41,29.37,2,2,7,0.00
2013-4-9,44.0,43.5,42.0,43.0,42.5,41.0,98,98,97,29.17,29.17,1,1,7,0.12
2013-4-10,51.0,50.5,49.0,42.0,41.2,40.0,75,70,67,29.49,29.44,3,2,8,0.00
2013-4-11,45.0,44.6,44.0,45.0,44.6,44.0,99,99,99,29.28,29.27,0,0,2,0.38
2013-4-12,52.0,52.0,52.0,47.0,47.0,47.0,84,84,84,29.21,29.21,2,2,8,0.00
2013-4-13,50.0,49.0,48.0,50.0,48.0,46.0,99,96,92,29.67,29.61,6,4,14,0.09
2013-4-14,62.0,58.6,55.0,52.0,49.9,47.0,76,73,68,29.73,29.68,6,2,17,0.06
2013-4-18,53.0,53.0,53.0,46.0,46.0,46.0,77,77,77,29.75,29.75,2,2,9,0.00
2013-4-19,51.0,50.4,49.0,44.0,42.5,42.0,79,73,70,30.08,30.06,4,3,14,0.18
2013-4-20,60.0,59.2,59.0,34.0,32.3,32.0,37,36,36,30.29,30.28,2,2,6,0.00
2013-4-21,56.0,56.0,56.0,40.0,40.0,40.0,54,54,54,29.98,29.98,0,0,3,0.00
2013-4-26,57.0,53.7,50.0,30.0,26.1,23.0,35,34,32,29.72,29.70,3,2,11,0.24
2013-4-28,54.0,50.2,47.0,38.0,30.4,27.0,69,47,38,29.88,29.70,3,2,10,0.00
2013-5-2,75.0,74.6,74.0,15.0,14.6,14.0,10,10,10,29.96,29.96,0,0,3,0.00
2013-5-5,69.0,64.8,58.0,49.0,46.7,44.0,68,53,45,29.96,29.94,2,1,6,0.00
2013-5-6,71.0,70.4,69.0,48.0,47.9,47.0,46,45,44,29.91,29.90,2,1,6,0.00
2013-5-10,63.0,55.8,49.0,50.0,42.8,-99.9,88,69,51,29.72,29.68,5,3,21,0.13
2013-5-11,58.0,55.9,54.0,50.0,43.4,39.0,80,64,52,29.62,29.60,5,3,15,0.11
2013-5-12,56.0,53.1,52.0,54.0,49.0,42.0,99,87,59,29.82,29.70,3,1,10,0.11
2013-5-16,67.0,61.8,60.0,40.0,37.2,36.0,42,40,37,29.28,29.27,1,0,3,0.06
2013-5-17,62.0,52.2,50.0,55.0,36.2,-99.9,93,69,59,29.61,29.47,0,0,2,0.05
2013-5-18,64.0,62.5,62.0,46.0,43.9,42.0,54,51,48,29.55,29.53,1,0,8,0.00
2013-5-19,72.0,66.2,60.0,49.0,46.7,45.0,58,50,43,29.68,29.66,1,0,6,0.00
2013-5-22,62.0,62.0,62.0,39.0,39.0,39.0,43,43,43,29.83,29.83,1,1,16,0.00
2013-5-23,57.0,50.8,46.0,42.0,37.5,35.0,69,61,57,29.70,29.70,1,0,6,0.09
2013-5-24,47.0,44.3,42.0,45.0,43.2,41.0,99,96,83,29.76,29.58,2,0,8,0.35
2013-5-26,72.0,60.9,50.0,37.0,36.3,35.0,56,42,27,29.79,29.76,2,0,8,0.00
2013-5-28,52.0,51.3,51.0,51.0,50.3,50.0,98,98,97,29.29,29.28,1,1,4,0.73
2013-5-29,54.0,54.0,54.0,54.0,54.0,54.0,99,99,99,29.51,29.51,1,1,5,0.04
2013-5-31,58.0,57.2,56.0,53.0,53.0,53.0,89,86,83,29.88,29.86,1,1,8,0.01
2013-6-1,58.0,58.0,58.0,42.0,42.0,42.0,56,56,56,30.01,30.01,2,2,8,0.00
2013-6-2,78.0,71.2,61.0,49.0,41.2,35.0,65,36,27,30.19,30.17,1,0,7,0.00
2013-6-5,80.0,79.4,79.0,50.0,49.4,49.0,35,35,35,29.87,29.86,0,0,2,0.00
2013-6-7,80.0,72.7,64.0,50.0,47.3,45.0,53,41,35,29.97,29.95,0,0,4,0.00
2013-6-8,72.0,69.6,65.0,49.0,47.3,46.0,52,45,41,29.98,29.93,1,0,5,0.00
2013-6-9,76.0,74.0,71.0,48.0,46.1,43.0,39,37,35,29.76,29.74,0,0,4,0.00
2013-6-12,61.0,61.0,61.0,61.0,61.0,61.0,99,99,99,29.61,29.61,3,3,11,0.02
2013-6-13,63.0,61.3,60.0,55.0,49.3,45.0,85,66,52,29.76,29.62,3,3,15,0.11
2013-6-14,67.0,60.4,58.0,55.0,49.9,44.0,89,69,50,29.83,29.64,5,2,12,0.00
2013-6-15,64.0,59.1,57.0,53.0,49.4,46.0,79,70,64,29.62,29.54,5,3,21,0.30
2013-6-16,66.0,61.9,58.0,53.0,50.8,49.0,76,67,59,29.74,29.70,1,1,7,0.02
2013-6-19,76.0,75.3,75.0,59.0,58.3,58.0,56,56,55,29.74,29.74,0,0,2,0.00
2013-6-20,68.0,67.5,66.0,66.0,64.7,63.0,92,90,88,29.64,29.61,0,0,3,0.00